Time;durP1;ratioP1;P1;durP2;ratioP2;P2;SDS_P1;SDS_P2;PMS_P1;PMS_P2;Temp;Humidity;BMP_temperature;BMP_pressure;BME280_temperature;BME280_humidity;BME280_pressure;Samples;Min_cycle;Max_cycle;Signal;HPM_P1;HPM_P2
2023/12/07 00:01:52;;;;;;;5.97;3.90;;;;;;;;;;4991340;28;20038;-88
2023/12/07 00:04:18;;;;;;;8.40;3.80;;;;;;;;;;5005063;28;20037;-88
2023/12/07 00:06:44;;;;;;;6.70;3.13;;;;;;;;;;4988942;28;20046;-88
2023/12/07 00:09:09;;;;;;;4.70;2.95;;;;;;;;;;5003444;28;20042;-88
2023/12/07 00:11:35;;;;;;;5.38;3.65;;;;;;;;;;5005177;28;20096;-88
2023/12/07 00:14:02;;;;;;;7.47;3.80;;;;;;;;;;4988537;28;20046;-88
2023/12/07 00:16:28;;;;;;;5.53;3.17;;;;;;;;;;4987207;28;20048;-88
2023/12/07 00:18:54;;;;;;;6.53;2.88;;;;;;;;;;5003939;28;20046;-88
2023/12/07 00:21:19;;;;;;;5.70;3.08;;;;;;;;;;5000539;28;20045;-88
2023/12/07 00:23:46;;;;;;;4.82;3.47;;;;;;;;;;4986678;28;20080;-88
2023/12/07 00:26:12;;;;;;;6.82;4.50;;;;;;;;;;5003965;28;21146;-88
2023/12/07 00:28:37;;;;;;;4.93;3.03;;;;;;;;;;4985728;28;20039;-88
2023/12/07 00:31:04;;;;;;;6.97;4.13;;;;;;;;;;5008863;28;20056;-88
2023/12/07 00:33:30;;;;;;;6.30;3.90;;;;;;;;;;5006312;28;20065;-88
2023/12/07 00:35:56;;;;;;;6.85;3.85;;;;;;;;;;4983935;28;20081;-88
2023/12/07 00:38:21;;;;;;;6.80;4.28;;;;;;;;;;5009722;28;20481;-88
2023/12/07 00:40:48;;;;;;;7.40;3.50;;;;;;;;;;5005697;28;20035;-88
2023/12/07 00:43:14;;;;;;;6.88;3.92;;;;;;;;;;4983809;28;20125;-88
2023/12/07 00:45:40;;;;;;;6.80;4.25;;;;;;;;;;5003957;28;20490;-88
2023/12/07 00:48:06;;;;;;;3.60;2.35;;;;;;;;;;5005233;28;20457;-88
2023/12/07 00:50:32;;;;;;;8.30;4.35;;;;;;;;;;5014341;28;20424;-88
2023/12/07 00:52:58;;;;;;;6.20;3.70;;;;;;;;;;5027487;28;20038;-88
2023/12/07 00:55:24;;;;;;;7.80;3.58;;;;;;;;;;5011657;28;20044;-88
2023/12/07 00:57:51;;;;;;;9.32;4.22;;;;;;;;;;5009358;28;20492;-88
2023/12/07 01:00:17;;;;;;;7.22;3.80;;;;;;;;;;4995534;28;20080;-88
2023/12/07 01:02:43;;;;;;;7.63;4.97;;;;;;;;;;5011584;28;20034;-88
2023/12/07 01:05:10;;;;;;;6.90;4.68;;;;;;;;;;5013389;28;20520;-88
2023/12/07 01:07:36;;;;;;;8.63;4.63;;;;;;;;;;4995329;28;20377;-88
2023/12/07 01:10:02;;;;;;;9.38;5.70;;;;;;;;;;4997769;28;20070;-88
2023/12/07 01:12:28;;;;;;;8.85;4.13;;;;;;;;;;5011846;28;20501;-88
2023/12/07 01:14:54;;;;;;;8.45;4.22;;;;;;;;;;5011249;28;20033;-88
2023/12/07 01:17:20;;;;;;;7.03;4.13;;;;;;;;;;4997457;28;20038;-88
2023/12/07 01:19:46;;;;;;;8.25;3.50;;;;;;;;;;4995162;28;20121;-88
2023/12/07 01:22:12;;;;;;;7.13;4.43;;;;;;;;;;5012916;28;20141;-88
2023/12/07 01:24:38;;;;;;;8.25;4.38;;;;;;;;;;5013741;28;20171;-88
2023/12/07 01:27:04;;;;;;;8.55;4.15;;;;;;;;;;5010897;28;20077;-88
2023/12/07 01:29:30;;;;;;;6.68;3.55;;;;;;;;;;5011224;28;20558;-88
2023/12/07 01:31:56;;;;;;;7.22;4.15;;;;;;;;;;5026231;28;20038;-88
2023/12/07 01:34:22;;;;;;;7.40;4.10;;;;;;;;;;5011655;28;20034;-88
2023/12/07 01:36:48;;;;;;;7.20;4.40;;;;;;;;;;5010273;28;20041;-88
2023/12/07 01:39:15;;;;;;;7.65;4.22;;;;;;;;;;5010957;28;20037;-88
2023/12/07 01:41:41;;;;;;;7.40;3.75;;;;;;;;;;5011214;28;20045;-88
2023/12/07 01:44:07;;;;;;;8.70;5.07;;;;;;;;;;5010071;28;20073;-88
2023/12/07 01:46:34;;;;;;;9.50;5.53;;;;;;;;;;5017170;28;20065;-88
2023/12/07 01:49:01;;;;;;;8.07;4.28;;;;;;;;;;5008972;28;20047;-88
2023/12/07 01:51:27;;;;;;;7.90;4.28;;;;;;;;;;5013626;28;20117;-88
2023/12/07 01:53:54;;;;;;;7.55;4.50;;;;;;;;;;5002879;28;20065;-88
2023/12/07 01:56:20;;;;;;;9.50;5.30;;;;;;;;;;5003488;28;20038;-88
2023/12/07 01:58:46;;;;;;;8.43;4.70;;;;;;;;;;5011188;28;20068;-88
2023/12/07 02:01:12;;;;;;;6.75;4.43;;;;;;;;;;5001867;28;20432;-88
2023/12/07 02:03:41;;;;;;;7.05;4.63;;;;;;;;;;5010977;28;20045;-88
2023/12/07 02:06:10;;;;;;;10.23;5.40;;;;;;;;;;4999539;28;20046;-88
2023/12/07 02:08:41;;;;;;;8.70;4.80;;;;;;;;;;5003610;28;20555;-88
2023/12/07 02:11:08;;;;;;;9.35;4.30;;;;;;;;;;5005359;28;20049;-88
2023/12/07 02:13:35;;;;;;;10.00;5.00;;;;;;;;;;4993786;28;20443;-88
2023/12/07 02:16:01;;;;;;;9.13;4.85;;;;;;;;;;4994160;28;20462;-88
2023/12/07 02:18:40;;;;;;;8.77;4.25;;;;;;;;;;5006069;28;20038;-88
2023/12/07 02:21:14;;;;;;;9.57;4.75;;;;;;;;;;5009884;28;20042;-88
2023/12/07 02:23:42;;;;;;;7.57;4.32;;;;;;;;;;4994588;28;20375;-88
2023/12/07 02:26:09;;;;;;;6.88;4.53;;;;;;;;;;4993048;28;20042;-88
2023/12/07 02:28:35;;;;;;;8.68;4.93;;;;;;;;;;4994164;28;20588;-88
2023/12/07 02:31:01;;;;;;;8.27;4.35;;;;;;;;;;5006351;28;20573;-88
2023/12/07 02:33:27;;;;;;;8.60;4.05;;;;;;;;;;5012517;28;20129;-88
2023/12/07 02:35:53;;;;;;;9.05;4.57;;;;;;;;;;5002380;28;20038;-88
2023/12/07 02:38:19;;;;;;;7.25;4.07;;;;;;;;;;5010392;28;20038;-88
2023/12/07 02:40:46;;;;;;;8.18;3.38;;;;;;;;;;5009650;28;20038;-88
2023/12/07 02:43:12;;;;;;;7.60;3.65;;;;;;;;;;5013473;28;20041;-88
2023/12/07 02:45:39;;;;;;;7.03;3.88;;;;;;;;;;4996097;28;20450;-88
2023/12/07 02:48:05;;;;;;;8.90;4.28;;;;;;;;;;5013841;28;20091;-88
2023/12/07 02:50:31;;;;;;;10.18;4.53;;;;;;;;;;5015886;28;20054;-88
2023/12/07 02:52:57;;;;;;;8.13;4.03;;;;;;;;;;4986756;28;20066;-88
2023/12/07 02:55:23;;;;;;;6.97;3.90;;;;;;;;;;5005563;28;20121;-88
2023/12/07 02:57:50;;;;;;;9.55;3.92;;;;;;;;;;4989664;28;20069;-88
2023/12/07 03:00:17;;;;;;;9.63;4.55;;;;;;;;;;5012287;28;20049;-88
2023/12/07 03:02:43;;;;;;;8.27;4.35;;;;;;;;;;5023594;28;20039;-88
2023/12/07 03:05:09;;;;;;;7.45;3.50;;;;;;;;;;5002144;28;20054;-88
2023/12/07 03:07:35;;;;;;;6.65;4.20;;;;;;;;;;5015188;28;20042;-88
2023/12/07 03:10:02;;;;;;;8.93;4.45;;;;;;;;;;4995839;28;20476;-88
2023/12/07 03:12:28;;;;;;;9.32;4.07;;;;;;;;;;5003869;28;20042;-87
2023/12/07 03:14:54;;;;;;;8.60;3.97;;;;;;;;;;4993518;28;20035;-88
2023/12/07 03:17:20;;;;;;;8.93;5.03;;;;;;;;;;5008390;28;20085;-88
2023/12/07 03:19:46;;;;;;;9.85;4.85;;;;;;;;;;5009069;28;20037;-88
2023/12/07 03:22:13;;;;;;;10.63;5.40;;;;;;;;;;5003683;28;20520;-88
2023/12/07 03:24:39;;;;;;;9.15;4.97;;;;;;;;;;4987149;28;20045;-88
2023/12/07 03:27:05;;;;;;;10.65;5.35;;;;;;;;;;5003038;28;20066;-88
2023/12/07 03:29:35;;;;;;;7.75;3.67;;;;;;;;;;4988437;28;20535;-88
2023/12/07 03:32:00;;;;;;;11.80;5.05;;;;;;;;;;4989897;28;20041;-88
2023/12/07 03:34:27;;;;;;;9.55;4.43;;;;;;;;;;4989044;28;20053;-88
2023/12/07 03:36:53;;;;;;;9.55;5.10;;;;;;;;;;4986511;28;20121;-88
2023/12/07 03:39:19;;;;;;;9.88;4.25;;;;;;;;;;5003742;28;20461;-88
2023/12/07 03:41:45;;;;;;;10.23;4.85;;;;;;;;;;5002867;28;20405;-88
2023/12/07 03:44:11;;;;;;;8.90;4.25;;;;;;;;;;4986938;28;20043;-88
2023/12/07 03:46:37;;;;;;;11.10;5.28;;;;;;;;;;5004428;28;20038;-88
2023/12/07 03:49:03;;;;;;;13.45;5.55;;;;;;;;;;5005269;28;20505;-88
2023/12/07 03:51:29;;;;;;;13.00;5.47;;;;;;;;;;5011201;28;20041;-88
2023/12/07 03:53:55;;;;;;;11.65;5.32;;;;;;;;;;4995386;28;20076;-88
2023/12/07 03:56:25;;;;;;;10.65;4.88;;;;;;;;;;4995129;28;20045;-88
2023/12/07 03:58:51;;;;;;;11.90;5.93;;;;;;;;;;4995708;28;20049;-88
2023/12/07 04:01:17;;;;;;;10.50;5.70;;;;;;;;;;5012490;28;20042;-88
2023/12/07 04:03:43;;;;;;;7.90;3.95;;;;;;;;;;4995890;28;20121;-88
2023/12/07 04:06:09;;;;;;;7.90;3.90;;;;;;;;;;5011858;28;20041;-88
2023/12/07 04:08:36;;;;;;;8.85;4.93;;;;;;;;;;5012607;28;20057;-88
2023/12/07 04:11:02;;;;;;;12.68;5.15;;;;;;;;;;5016702;28;20072;-88
2023/12/07 04:13:28;;;;;;;12.50;5.63;;;;;;;;;;5013833;28;20044;-88
2023/12/07 04:15:54;;;;;;;12.02;6.25;;;;;;;;;;5011471;28;20037;-88
2023/12/07 04:18:20;;;;;;;11.55;5.57;;;;;;;;;;5012069;28;20042;-88
2023/12/07 04:20:46;;;;;;;13.32;5.85;;;;;;;;;;4991696;28;20030;-88
2023/12/07 04:23:12;;;;;;;12.32;5.70;;;;;;;;;;5006271;28;20500;-88
2023/12/07 04:25:38;;;;;;;11.60;5.15;;;;;;;;;;5012610;28;20069;-88
2023/12/07 04:28:04;;;;;;;11.10;5.07;;;;;;;;;;5011611;28;20046;-88
2023/12/07 04:30:30;;;;;;;12.13;5.63;;;;;;;;;;5011970;28;20075;-88
2023/12/07 04:32:56;;;;;;;11.50;5.68;;;;;;;;;;5011327;28;20520;-87
2023/12/07 04:35:22;;;;;;;14.07;6.00;;;;;;;;;;4995591;28;20076;-88
2023/12/07 04:37:48;;;;;;;11.75;6.38;;;;;;;;;;5011121;28;20077;-88
2023/12/07 04:40:14;;;;;;;11.32;5.65;;;;;;;;;;5007712;28;20030;-88
2023/12/07 04:42:40;;;;;;;10.43;5.10;;;;;;;;;;5011896;28;20041;-88
2023/12/07 04:45:07;;;;;;;11.73;5.47;;;;;;;;;;5010788;28;20412;-88
2023/12/07 04:47:33;;;;;;;12.23;5.65;;;;;;;;;;5009035;28;20048;-88
2023/12/07 04:50:00;;;;;;;12.25;6.18;;;;;;;;;;5020289;28;20037;-88
2023/12/07 04:52:26;;;;;;;14.90;6.38;;;;;;;;;;5022844;28;20447;-88
2023/12/07 04:54:52;;;;;;;9.93;5.20;;;;;;;;;;5021589;28;20033;-88
2023/12/07 04:57:18;;;;;;;12.60;6.00;;;;;;;;;;5011063;28;20099;-88
2023/12/07 04:59:46;;;;;;;11.05;4.70;;;;;;;;;;5006626;28;20068;-87
2023/12/07 05:02:14;;;;;;;11.90;5.40;;;;;;;;;;5025660;28;20077;-87
2023/12/07 05:04:40;;;;;;;11.02;5.07;;;;;;;;;;5001189;28;20033;-88
2023/12/07 05:07:06;;;;;;;13.27;5.85;;;;;;;;;;5022659;28;20123;-87
2023/12/07 05:09:32;;;;;;;13.52;6.90;;;;;;;;;;5025041;28;20065;-88
2023/12/07 05:11:58;;;;;;;11.90;5.60;;;;;;;;;;5018166;28;20047;-88
2023/12/07 05:14:24;;;;;;;9.25;5.10;;;;;;;;;;5026716;28;20099;-88
2023/12/07 05:16:53;;;;;;;12.20;5.82;;;;;;;;;;5022130;28;20037;-88
2023/12/07 05:19:23;;;;;;;15.80;6.65;;;;;;;;;;5024522;28;20034;-88
2023/12/07 05:21:49;;;;;;;12.57;5.78;;;;;;;;;;5018599;28;20112;-88
2023/12/07 05:24:15;;;;;;;12.70;5.68;;;;;;;;;;5010199;28;20069;-88
2023/12/07 05:26:42;;;;;;;15.80;5.88;;;;;;;;;;5022556;28;20121;-88
2023/12/07 05:29:09;;;;;;;12.88;5.80;;;;;;;;;;5023877;28;20073;-88
2023/12/07 05:31:36;;;;;;;14.68;6.15;;;;;;;;;;5005520;28;20498;-88
2023/12/07 05:34:02;;;;;;;14.18;6.15;;;;;;;;;;5006288;28;20044;-87
2023/12/07 05:36:29;;;;;;;12.00;5.88;;;;;;;;;;5022540;28;20105;-87
2023/12/07 05:38:55;;;;;;;14.38;6.22;;;;;;;;;;5026015;28;20144;-87
2023/12/07 05:41:21;;;;;;;12.43;5.88;;;;;;;;;;5025616;28;20099;-88
2023/12/07 05:43:47;;;;;;;11.93;5.70;;;;;;;;;;5009025;28;20034;-88
2023/12/07 05:46:13;;;;;;;11.55;6.18;;;;;;;;;;5021968;28;20035;-87
2023/12/07 05:48:39;;;;;;;14.00;7.10;;;;;;;;;;5021440;28;20128;-87
2023/12/07 05:51:05;;;;;;;16.05;7.40;;;;;;;;;;5021562;28;20046;-87
2023/12/07 05:53:32;;;;;;;13.93;5.80;;;;;;;;;;5025919;28;20117;-87
2023/12/07 05:55:58;;;;;;;10.38;5.53;;;;;;;;;;5021746;28;20043;-87
2023/12/07 05:58:24;;;;;;;10.93;5.95;;;;;;;;;;5009532;28;20042;-87
2023/12/07 06:00:51;;;;;;;13.90;6.78;;;;;;;;;;5004200;28;20034;-88
2023/12/07 06:03:17;;;;;;;11.02;5.68;;;;;;;;;;5022608;28;20839;-88
2023/12/07 06:05:45;;;;;;;12.77;5.95;;;;;;;;;;5022369;28;20037;-87
2023/12/07 06:08:11;;;;;;;13.93;7.13;;;;;;;;;;5025524;28;20053;-87
2023/12/07 06:10:38;;;;;;;14.32;6.10;;;;;;;;;;5026332;28;20489;-88
2023/12/07 06:13:05;;;;;;;13.85;6.88;;;;;;;;;;5026353;28;20052;-88
2023/12/07 06:15:31;;;;;;;13.25;6.50;;;;;;;;;;5025230;28;20088;-88
2023/12/07 06:17:59;;;;;;;14.82;6.90;;;;;;;;;;5029383;28;20037;-88
2023/12/07 06:20:25;;;;;;;13.25;6.07;;;;;;;;;;5027754;28;20112;-88
2023/12/07 06:22:51;;;;;;;12.80;6.00;;;;;;;;;;5006354;28;20029;-88
2023/12/07 06:25:17;;;;;;;13.35;6.78;;;;;;;;;;5009962;28;20037;-88
2023/12/07 06:27:44;;;;;;;12.13;6.15;;;;;;;;;;5024275;28;20460;-88
2023/12/07 06:30:10;;;;;;;12.18;6.22;;;;;;;;;;5010507;28;20559;-88
2023/12/07 06:32:36;;;;;;;14.05;6.13;;;;;;;;;;5024831;28;20038;-88
2023/12/07 06:35:04;;;;;;;11.75;5.57;;;;;;;;;;5024772;28;20041;-88
2023/12/07 06:37:30;;;;;;;15.13;6.75;;;;;;;;;;5013119;28;20048;-88
2023/12/07 06:39:56;;;;;;;16.25;6.95;;;;;;;;;;5008140;28;20038;-88
2023/12/07 06:42:22;;;;;;;13.88;6.13;;;;;;;;;;5022051;28;20504;-87
2023/12/07 06:44:49;;;;;;;15.60;6.85;;;;;;;;;;5011609;28;20034;-88
2023/12/07 06:47:15;;;;;;;14.20;6.93;;;;;;;;;;5024568;28;20042;-88
2023/12/07 06:49:41;;;;;;;12.77;6.43;;;;;;;;;;5011283;28;20059;-88
2023/12/07 06:52:07;;;;;;;13.07;6.32;;;;;;;;;;5009228;28;20223;-87
2023/12/07 06:54:33;;;;;;;10.50;6.28;;;;;;;;;;5010073;28;20460;-88
2023/12/07 06:56:59;;;;;;;15.30;6.60;;;;;;;;;;5009054;28;20176;-87
2023/12/07 06:59:25;;;;;;;13.02;6.28;;;;;;;;;;5024792;28;20046;-88
2023/12/07 07:01:51;;;;;;;11.63;6.50;;;;;;;;;;5027930;28;20029;-88
2023/12/07 07:04:18;;;;;;;14.25;6.70;;;;;;;;;;5009531;28;20038;-88
2023/12/07 07:06:44;;;;;;;13.00;5.97;;;;;;;;;;5010313;28;20041;-88
2023/12/07 07:09:12;;;;;;;12.93;6.38;;;;;;;;;;5038275;28;20050;-87
2023/12/07 07:11:38;;;;;;;15.13;7.88;;;;;;;;;;5012434;28;20029;-87
2023/12/07 07:14:04;;;;;;;14.23;7.00;;;;;;;;;;5024810;28;20041;-88
2023/12/07 07:16:30;;;;;;;16.90;7.43;;;;;;;;;;5028114;28;20467;-87
2023/12/07 07:18:56;;;;;;;14.90;7.63;;;;;;;;;;5026565;28;20485;-86
2023/12/07 07:21:22;;;;;;;14.95;7.43;;;;;;;;;;5027352;28;20053;-87
2023/12/07 07:23:49;;;;;;;13.55;7.13;;;;;;;;;;5027174;28;20045;-86
2023/12/07 07:26:16;;;;;;;12.70;6.35;;;;;;;;;;5023508;28;20046;-86
2023/12/07 07:28:43;;;;;;;10.77;6.82;;;;;;;;;;5025415;28;20052;-87
2023/12/07 07:31:09;;;;;;;15.43;6.82;;;;;;;;;;5025243;28;20045;-87
2023/12/07 07:33:35;;;;;;;15.18;6.95;;;;;;;;;;5009398;28;20549;-86
2023/12/07 07:36:01;;;;;;;11.75;5.60;;;;;;;;;;5007682;28;20037;-86
2023/12/07 07:38:27;;;;;;;14.52;7.25;;;;;;;;;;5008842;28;20080;-87
2023/12/07 07:40:53;;;;;;;12.98;7.00;;;;;;;;;;5021738;28;20099;-86
2023/12/07 07:43:19;;;;;;;16.10;7.20;;;;;;;;;;5027870;28;20171;-86
2023/12/07 07:45:45;;;;;;;16.15;7.65;;;;;;;;;;5004773;28;20084;-86
2023/12/07 07:48:12;;;;;;;16.65;8.23;;;;;;;;;;5027587;28;20045;-86
2023/12/07 07:50:38;;;;;;;17.48;7.28;;;;;;;;;;5008635;28;20052;-86
2023/12/07 07:53:04;;;;;;;12.75;7.20;;;;;;;;;;5027352;28;20040;-86
2023/12/07 07:55:31;;;;;;;18.77;7.88;;;;;;;;;;5009839;28;20037;-86
2023/12/07 07:57:57;;;;;;;16.55;7.55;;;;;;;;;;5030501;28;20397;-85
2023/12/07 08:00:25;;;;;;;13.02;6.80;;;;;;;;;;5030188;28;20128;-86
2023/12/07 08:02:52;;;;;;;16.35;6.55;;;;;;;;;;5022175;28;20040;-89
2023/12/07 08:05:18;;;;;;;14.32;6.05;;;;;;;;;;5031724;28;20420;-87
2023/12/07 08:07:44;;;;;;;16.52;7.20;;;;;;;;;;5031943;28;20123;-87
2023/12/07 08:10:10;;;;;;;14.38;6.60;;;;;;;;;;5028040;28;20065;-86
2023/12/07 08:12:37;;;;;;;14.25;6.50;;;;;;;;;;5004589;28;20049;-87
2023/12/07 08:15:03;;;;;;;13.70;6.85;;;;;;;;;;5025568;28;20094;-87
2023/12/07 08:17:29;;;;;;;14.50;6.20;;;;;;;;;;5011705;28;20038;-87
2023/12/07 08:19:57;;;;;;;12.18;6.68;;;;;;;;;;5015662;28;20491;-87
2023/12/07 08:22:23;;;;;;;14.13;6.63;;;;;;;;;;5026877;28;20508;-86
2023/12/07 08:24:49;;;;;;;15.43;7.28;;;;;;;;;;5025037;28;20067;-86
2023/12/07 08:27:15;;;;;;;15.50;7.53;;;;;;;;;;5028609;28;20045;-86
2023/12/07 08:29:41;;;;;;;14.00;6.70;;;;;;;;;;5028634;28;20041;-86
2023/12/07 08:32:07;;;;;;;17.80;7.68;;;;;;;;;;5027544;28;20045;-86
2023/12/07 08:34:33;;;;;;;9.15;5.15;;;;;;;;;;5027211;28;20037;-87
2023/12/07 08:36:59;;;;;;;13.18;5.82;;;;;;;;;;5010726;28;20504;-86
2023/12/07 08:39:26;;;;;;;17.02;8.27;;;;;;;;;;5009480;28;20041;-86
2023/12/07 08:41:53;;;;;;;12.75;6.03;;;;;;;;;;5025390;28;20094;-86
2023/12/07 08:44:19;;;;;;;13.48;6.95;;;;;;;;;;5030337;28;20029;-87
2023/12/07 08:46:46;;;;;;;16.00;7.10;;;;;;;;;;5028249;28;20033;-85
2023/12/07 08:49:12;;;;;;;15.13;7.53;;;;;;;;;;5008562;28;20144;-85
2023/12/07 08:51:38;;;;;;;16.98;6.82;;;;;;;;;;5029386;28;20133;-87
2023/12/07 08:54:05;;;;;;;15.95;7.07;;;;;;;;;;5014806;28;20037;-88
2023/12/07 08:56:31;;;;;;;17.83;7.57;;;;;;;;;;5030957;28;20040;-87
2023/12/07 08:58:57;;;;;;;17.38;7.78;;;;;;;;;;5033563;28;20065;-88
2023/12/07 09:01:23;;;;;;;15.43;7.60;;;;;;;;;;5011075;28;20033;-88
2023/12/07 09:03:49;;;;;;;15.73;8.57;;;;;;;;;;5028547;28;20040;-88
2023/12/07 09:06:15;;;;;;;15.95;8.40;;;;;;;;;;5018359;28;20476;-87
2023/12/07 09:08:41;;;;;;;18.85;8.32;;;;;;;;;;5015347;28;20045;-87
2023/12/07 09:11:07;;;;;;;15.63;9.05;;;;;;;;;;5009418;28;20041;-87
2023/12/07 09:13:33;;;;;;;17.33;8.63;;;;;;;;;;5027079;28;20041;-87
2023/12/07 09:15:59;;;;;;;18.13;9.13;;;;;;;;;;5022351;28;20291;-87
2023/12/07 09:18:25;;;;;;;19.83;8.55;;;;;;;;;;5026388;28;20068;-87
2023/12/07 09:20:51;;;;;;;16.13;6.78;;;;;;;;;;5031801;28;20399;-85
2023/12/07 09:23:17;;;;;;;14.32;7.22;;;;;;;;;;5046242;28;20072;-86
2023/12/07 09:25:43;;;;;;;10.30;4.93;;;;;;;;;;5040833;28;20040;-88
2023/12/07 09:28:12;;;;;;;16.05;7.22;;;;;;;;;;5024556;28;20048;-86
2023/12/07 09:30:38;;;;;;;11.82;5.53;;;;;;;;;;5026138;28;20120;-87
2023/12/07 09:33:04;;;;;;;18.48;7.97;;;;;;;;;;5028309;28;20135;-87
2023/12/07 09:35:31;;;;;;;23.55;8.48;;;;;;;;;;5007944;28;20068;-87
2023/12/07 09:37:57;;;;;;;19.17;8.27;;;;;;;;;;5025594;28;20193;-86
2023/12/07 09:40:24;;;;;;;17.60;8.13;;;;;;;;;;5029011;28;20045;-87
2023/12/07 09:42:50;;;;;;;19.23;7.25;;;;;;;;;;5019998;28;20048;-87
2023/12/07 09:45:18;;;;;;;12.90;6.38;;;;;;;;;;5017755;28;20045;-87
2023/12/07 09:47:47;;;;;;;21.48;8.15;;;;;;;;;;5031006;28;20044;-87
2023/12/07 09:50:16;;;;;;;13.73;6.38;;;;;;;;;;5025117;28;20054;-87
2023/12/07 09:52:43;;;;;;;11.50;6.07;;;;;;;;;;5028449;28;20440;-87
2023/12/07 09:55:09;;;;;;;13.20;4.82;;;;;;;;;;5008152;28;20448;-87
2023/12/07 09:57:37;;;;;;;12.63;6.00;;;;;;;;;;5043018;28;20037;-87
2023/12/07 10:00:04;;;;;;;14.65;6.50;;;;;;;;;;5022147;28;20162;-86
2023/12/07 10:02:30;;;;;;;22.15;6.72;;;;;;;;;;5027919;28;20049;-86
2023/12/07 10:05:06;;;;;;;20.33;6.28;;;;;;;;;;5030463;28;20049;-86
2023/12/07 10:07:34;;;;;;;12.38;5.97;;;;;;;;;;5015770;28;20037;-86
2023/12/07 10:10:01;;;;;;;17.52;7.20;;;;;;;;;;5024042;28;20042;-86
2023/12/07 10:12:27;;;;;;;18.55;7.15;;;;;;;;;;5027823;28;20559;-86
2023/12/07 10:14:53;;;;;;;14.30;6.45;;;;;;;;;;5013454;28;20097;-87
2023/12/07 10:17:19;;;;;;;19.77;7.68;;;;;;;;;;5025313;28;20071;-86
2023/12/07 10:19:45;;;;;;;16.73;6.65;;;;;;;;;;5027069;28;20034;-87
2023/12/07 10:22:15;;;;;;;23.05;7.28;;;;;;;;;;5026988;28;20044;-86
2023/12/07 10:24:42;;;;;;;22.50;7.50;;;;;;;;;;5028290;28;20061;-86
2023/12/07 10:27:08;;;;;;;20.50;8.30;;;;;;;;;;5026677;28;20053;-86
2023/12/07 10:29:38;;;;;;;18.35;7.32;;;;;;;;;;5027541;28;20114;-86
2023/12/07 10:32:04;;;;;;;19.05;6.90;;;;;;;;;;5009771;28;20126;-86
2023/12/07 10:34:33;;;;;;;17.92;8.05;;;;;;;;;;5012010;28;20034;-87
2023/12/07 10:36:59;;;;;;;15.85;6.38;;;;;;;;;;5025907;28;20044;-86
2023/12/07 10:39:26;;;;;;;19.58;7.50;;;;;;;;;;5008222;28;20090;-86
2023/12/07 10:41:55;;;;;;;20.83;6.78;;;;;;;;;;5008615;28;20041;-85
2023/12/07 10:44:22;;;;;;;18.55;7.65;;;;;;;;;;5027282;28;20124;-86
2023/12/07 10:46:49;;;;;;;18.90;6.35;;;;;;;;;;5009553;28;20500;-86
2023/12/07 10:49:18;;;;;;;17.23;6.90;;;;;;;;;;5033210;28;20508;-87
2023/12/07 10:51:52;;;;;;;12.55;6.53;;;;;;;;;;5027147;28;20459;-89
2023/12/07 10:54:23;;;;;;;18.67;8.20;;;;;;;;;;5023858;28;20132;-87
2023/12/07 10:56:50;;;;;;;17.10;6.97;;;;;;;;;;5008175;28;20131;-87
2023/12/07 10:59:16;;;;;;;18.83;7.70;;;;;;;;;;5025619;28;20388;-88
2023/12/07 11:01:43;;;;;;;19.60;8.40;;;;;;;;;;5028675;28;20033;-88
2023/12/07 11:04:14;;;;;;;18.80;8.20;;;;;;;;;;5026230;28;20049;-89
2023/12/07 11:06:40;;;;;;;19.17;8.27;;;;;;;;;;5033253;28;20067;-89
2023/12/07 11:09:09;;;;;;;32.00;9.93;;;;;;;;;;5008530;28;20042;-88
2023/12/07 11:11:45;;;;;;;20.95;7.35;;;;;;;;;;5013950;28;20127;-89
2023/12/07 11:14:12;;;;;;;19.73;7.63;;;;;;;;;;5024990;28;20056;-88
2023/12/07 11:16:41;;;;;;;16.02;6.78;;;;;;;;;;5033271;28;20048;-89
2023/12/07 11:19:27;;;;;;;22.77;8.25;;;;;;;;;;5025553;28;20041;-88
2023/12/07 11:21:53;;;;;;;22.95;8.35;;;;;;;;;;5021602;28;20042;-88
2023/12/07 11:24:19;;;;;;;17.63;7.43;;;;;;;;;;5027400;28;20120;-89
2023/12/07 11:26:45;;;;;;;22.05;8.35;;;;;;;;;;5028851;28;20126;-88
2023/12/07 11:29:11;;;;;;;23.02;8.73;;;;;;;;;;5006374;28;20060;-88
2023/12/07 11:31:37;;;;;;;23.50;8.93;;;;;;;;;;5011389;28;20116;-88
2023/12/07 11:34:13;;;;;;;21.20;10.48;;;;;;;;;;5012172;28;20497;-87
2023/12/07 11:36:39;;;;;;;29.65;10.18;;;;;;;;;;5005203;28;20037;-87
2023/12/07 11:39:11;;;;;;;14.18;6.78;;;;;;;;;;5025077;28;20037;-88
2023/12/07 11:41:44;;;;;;;20.08;8.95;;;;;;;;;;5005958;28;20052;-88
2023/12/07 11:44:10;;;;;;;24.52;10.60;;;;;;;;;;5010733;28;20037;-87
2023/12/07 11:46:38;;;;;;;19.02;9.82;;;;;;;;;;5022633;28;20052;-88
2023/12/07 11:49:05;;;;;;;21.23;9.90;;;;;;;;;;5008297;28;20127;-89
2023/12/07 11:51:31;;;;;;;23.75;9.15;;;;;;;;;;5008268;28;20091;-89
2023/12/07 11:53:57;;;;;;;21.08;10.68;;;;;;;;;;5024213;28;20043;-88
2023/12/07 11:56:23;;;;;;;23.70;9.68;;;;;;;;;;5001895;28;20483;-89
2023/12/07 11:58:50;;;;;;;21.80;10.10;;;;;;;;;;5010003;28;20041;-90
2023/12/07 12:01:17;;;;;;;19.83;10.23;;;;;;;;;;5009517;28;20033;-88
2023/12/07 12:03:43;;;;;;;20.92;10.05;;;;;;;;;;5026396;28;20083;-89
2023/12/07 12:06:11;;;;;;;15.18;7.68;;;;;;;;;;5024719;28;20053;-87
2023/12/07 12:08:37;;;;;;;20.30;9.25;;;;;;;;;;5006729;28;20043;-88
2023/12/07 12:11:03;;;;;;;22.00;9.45;;;;;;;;;;5047977;28;20042;-88
2023/12/07 12:13:30;;;;;;;16.52;8.02;;;;;;;;;;5008887;28;20501;-88
2023/12/07 12:15:59;;;;;;;21.77;7.88;;;;;;;;;;5032296;28;20125;-89
2023/12/07 12:18:26;;;;;;;20.33;9.18;;;;;;;;;;5030141;28;20544;-88
2023/12/07 12:20:52;;;;;;;15.48;7.50;;;;;;;;;;5023363;28;20400;-89
2023/12/07 12:23:19;;;;;;;23.17;9.65;;;;;;;;;;5001708;28;20488;-88
2023/12/07 12:25:45;;;;;;;24.15;9.93;;;;;;;;;;5019030;28;20112;-88
2023/12/07 12:28:12;;;;;;;26.08;9.52;;;;;;;;;;5007960;28;20357;-88
2023/12/07 12:30:38;;;;;;;25.65;9.73;;;;;;;;;;5008745;28;20080;-88
2023/12/07 12:33:04;;;;;;;26.02;9.65;;;;;;;;;;5026722;28;20051;-88
2023/12/07 12:35:31;;;;;;;18.67;9.35;;;;;;;;;;5023810;28;20523;-88
2023/12/07 12:37:57;;;;;;;24.33;10.00;;;;;;;;;;5022345;28;20087;-88
2023/12/07 12:40:24;;;;;;;27.48;11.43;;;;;;;;;;5008852;28;20040;-87
2023/12/07 12:42:51;;;;;;;21.50;9.88;;;;;;;;;;5020673;28;20045;-87
2023/12/07 12:45:22;;;;;;;23.85;9.50;;;;;;;;;;5019337;28;20536;-86
2023/12/07 12:47:48;;;;;;;21.90;10.55;;;;;;;;;;5025912;28;20072;-86
2023/12/07 12:50:53;;;;;;;24.83;10.65;;;;;;;;;;5022322;28;20108;-86
2023/12/07 12:53:19;;;;;;;23.52;9.98;;;;;;;;;;4986673;28;20046;-86
2023/12/07 12:55:46;;;;;;;21.77;9.75;;;;;;;;;;4986038;28;20046;-87
2023/12/07 12:58:13;;;;;;;27.08;11.63;;;;;;;;;;4997999;28;20073;-86
2023/12/07 13:00:41;;;;;;;26.15;10.05;;;;;;;;;;5023388;28;20041;-86
2023/12/07 13:03:07;;;;;;;28.63;12.13;;;;;;;;;;5026414;28;20088;-87
2023/12/07 13:05:34;;;;;;;26.67;10.88;;;;;;;;;;5006326;28;20485;-87
2023/12/07 13:08:00;;;;;;;31.63;11.38;;;;;;;;;;5017734;28;20041;-88
2023/12/07 13:10:26;;;;;;;27.63;10.88;;;;;;;;;;5026032;28;20041;-88
2023/12/07 13:12:52;;;;;;;29.75;12.77;;;;;;;;;;5020931;28;20041;-88
2023/12/07 13:15:19;;;;;;;26.40;10.30;;;;;;;;;;5022214;28;20046;-89
2023/12/07 13:17:45;;;;;;;24.55;10.80;;;;;;;;;;5020020;28;20042;-88
2023/12/07 13:20:12;;;;;;;24.23;10.35;;;;;;;;;;5021893;28;20565;-88
2023/12/07 13:22:39;;;;;;;27.80;10.65;;;;;;;;;;5023778;28;20500;-89
2023/12/07 13:25:06;;;;;;;26.67;11.35;;;;;;;;;;5023219;28;20045;-88
2023/12/07 13:27:35;;;;;;;22.88;10.13;;;;;;;;;;5008949;28;20064;-88
2023/12/07 13:30:05;;;;;;;29.45;10.20;;;;;;;;;;5000897;28;20095;-88
2023/12/07 13:32:31;;;;;;;26.27;10.15;;;;;;;;;;5005741;28;20037;-88
2023/12/07 13:34:57;;;;;;;27.58;10.18;;;;;;;;;;5007582;28;20037;-88
2023/12/07 13:37:23;;;;;;;23.55;9.20;;;;;;;;;;5005200;28;20496;-88
2023/12/07 13:39:55;;;;;;;27.05;9.30;;;;;;;;;;5002884;28;20186;-88
2023/12/07 13:42:21;;;;;;;30.05;10.75;;;;;;;;;;5018752;28;20060;-88
2023/12/07 13:44:47;;;;;;;29.52;11.75;;;;;;;;;;5022431;28;20033;-89
2023/12/07 13:47:17;;;;;;;30.40;12.05;;;;;;;;;;5005377;28;20045;-88
2023/12/07 13:49:43;;;;;;;34.85;11.88;;;;;;;;;;5020176;28;20121;-89
2023/12/07 13:52:09;;;;;;;32.08;12.30;;;;;;;;;;5003926;28;20115;-87
2023/12/07 13:54:36;;;;;;;34.42;12.20;;;;;;;;;;5005977;28;20055;-88
2023/12/07 13:57:03;;;;;;;40.40;13.05;;;;;;;;;;5022407;28;20033;-86
2023/12/07 13:59:29;;;;;;;38.63;13.45;;;;;;;;;;5017411;28;20538;-86
2023/12/07 14:01:55;;;;;;;33.78;12.02;;;;;;;;;;5017511;28;20569;-86
2023/12/07 14:04:22;;;;;;;30.33;13.48;;;;;;;;;;5015617;28;20383;-86
2023/12/07 14:06:48;;;;;;;34.22;12.45;;;;;;;;;;5023561;28;20112;-86
2023/12/07 14:09:14;;;;;;;35.70;12.77;;;;;;;;;;5020140;28;20041;-86
2023/12/07 14:11:40;;;;;;;34.78;13.07;;;;;;;;;;5023680;28;20561;-86
2023/12/07 14:14:07;;;;;;;35.95;11.75;;;;;;;;;;5021582;28;20121;-88
2023/12/07 14:16:33;;;;;;;41.78;14.80;;;;;;;;;;5021731;28;20041;-88
2023/12/07 14:18:59;;;;;;;39.20;12.73;;;;;;;;;;5018840;28;20545;-88
2023/12/07 14:21:25;;;;;;;34.35;10.75;;;;;;;;;;5019310;28;20038;-89
2023/12/07 14:23:54;;;;;;;35.90;11.77;;;;;;;;;;5007175;28;20124;-89
2023/12/07 14:26:20;;;;;;;44.17;13.55;;;;;;;;;;5026788;28;20049;-89
2023/12/07 14:28:46;;;;;;;39.85;13.70;;;;;;;;;;5007280;28;20493;-86